sensor_id;sensor_type;location;lat;lon;timestamp;P1;durP1;ratioP1;P2;durP2;ratioP2
32082;SDS011;18597;48.328;7.932;2023-06-22T00:00:48;16.43;;;14.37;;
32082;SDS011;18597;48.328;7.932;2023-06-22T00:03:15;15.40;;;13.50;;
32082;SDS011;18597;48.328;7.932;2023-06-22T00:05:43;21.00;;;14.73;;
32082;SDS011;18597;48.328;7.932;2023-06-22T00:08:10;14.53;;;13.03;;
32082;SDS011;18597;48.328;7.932;2023-06-22T00:10:36;14.70;;;13.30;;
32082;SDS011;18597;48.328;7.932;2023-06-22T00:13:01;16.47;;;12.53;;
32082;SDS011;18597;48.328;7.932;2023-06-22T00:15:27;18.07;;;12.70;;
32082;SDS011;18597;48.328;7.932;2023-06-22T00:17:54;19.60;;;13.00;;
32082;SDS011;18597;48.328;7.932;2023-06-22T00:20:19;14.90;;;12.77;;
32082;SDS011;18597;48.328;7.932;2023-06-22T00:22:45;14.50;;;13.17;;
32082;SDS011;18597;48.328;7.932;2023-06-22T00:25:12;14.93;;;12.83;;
32082;SDS011;18597;48.328;7.932;2023-06-22T00:27:39;13.27;;;11.93;;
32082;SDS011;18597;48.328;7.932;2023-06-22T00:30:04;22.70;;;12.30;;
32082;SDS011;18597;48.328;7.932;2023-06-22T00:32:31;18.37;;;12.77;;
32082;SDS011;18597;48.328;7.932;2023-06-22T00:34:57;15.43;;;12.77;;
32082;SDS011;18597;48.328;7.932;2023-06-22T00:37:22;16.83;;;12.60;;
32082;SDS011;18597;48.328;7.932;2023-06-22T00:39:51;15.97;;;13.60;;
32082;SDS011;18597;48.328;7.932;2023-06-22T00:42:17;15.93;;;12.43;;
32082;SDS011;18597;48.328;7.932;2023-06-22T00:44:43;14.37;;;12.33;;
32082;SDS011;18597;48.328;7.932;2023-06-22T00:47:10;16.80;;;14.90;;
32082;SDS011;18597;48.328;7.932;2023-06-22T00:49:38;17.10;;;14.03;;
32082;SDS011;18597;48.328;7.932;2023-06-22T00:52:04;20.80;;;14.57;;
32082;SDS011;18597;48.328;7.932;2023-06-22T00:54:35;15.73;;;13.37;;
32082;SDS011;18597;48.328;7.932;2023-06-22T00:57:01;15.13;;;13.27;;
32082;SDS011;18597;48.328;7.932;2023-06-22T00:59:28;27.33;;;14.10;;
32082;SDS011;18597;48.328;7.932;2023-06-22T01:01:54;20.23;;;13.60;;
32082;SDS011;18597;48.328;7.932;2023-06-22T01:04:23;18.50;;;14.00;;
32082;SDS011;18597;48.328;7.932;2023-06-22T01:07:01;18.83;;;14.47;;
32082;SDS011;18597;48.328;7.932;2023-06-22T01:09:54;19.10;;;14.93;;
32082;SDS011;18597;48.328;7.932;2023-06-22T01:12:38;15.57;;;13.97;;
32082;SDS011;18597;48.328;7.932;2023-06-22T01:15:11;18.60;;;14.00;;
32082;SDS011;18597;48.328;7.932;2023-06-22T01:17:53;16.37;;;13.10;;
32082;SDS011;18597;48.328;7.932;2023-06-22T01:20:21;15.57;;;12.90;;
32082;SDS011;18597;48.328;7.932;2023-06-22T01:23:00;30.17;;;15.10;;
32082;SDS011;18597;48.328;7.932;2023-06-22T01:25:57;17.20;;;12.20;;
32082;SDS011;18597;48.328;7.932;2023-06-22T01:29:04;18.30;;;13.40;;
32082;SDS011;18597;48.328;7.932;2023-06-22T01:31:33;17.50;;;14.70;;
32082;SDS011;18597;48.328;7.932;2023-06-22T01:34:02;21.67;;;13.83;;
32082;SDS011;18597;48.328;7.932;2023-06-22T01:36:32;26.67;;;14.03;;
32082;SDS011;18597;48.328;7.932;2023-06-22T01:38:59;22.87;;;12.27;;
32082;SDS011;18597;48.328;7.932;2023-06-22T01:41:27;18.83;;;13.70;;
32082;SDS011;18597;48.328;7.932;2023-06-22T01:43:56;19.73;;;13.50;;
32082;SDS011;18597;48.328;7.932;2023-06-22T01:46:22;19.60;;;12.57;;
32082;SDS011;18597;48.328;7.932;2023-06-22T01:48:49;44.87;;;14.20;;
32082;SDS011;18597;48.328;7.932;2023-06-22T01:51:16;15.33;;;13.37;;
32082;SDS011;18597;48.328;7.932;2023-06-22T01:53:41;22.33;;;14.57;;
32082;SDS011;18597;48.328;7.932;2023-06-22T01:56:07;33.37;;;13.70;;
32082;SDS011;18597;48.328;7.932;2023-06-22T01:58:34;19.90;;;14.50;;
32082;SDS011;18597;48.328;7.932;2023-06-22T02:01:10;27.07;;;15.37;;
32082;SDS011;18597;48.328;7.932;2023-06-22T02:03:43;19.57;;;13.60;;
32082;SDS011;18597;48.328;7.932;2023-06-22T02:06:17;21.67;;;15.17;;
32082;SDS011;18597;48.328;7.932;2023-06-22T02:08:57;17.13;;;13.37;;
32082;SDS011;18597;48.328;7.932;2023-06-22T02:11:26;28.53;;;14.17;;
32082;SDS011;18597;48.328;7.932;2023-06-22T02:13:55;27.63;;;13.77;;
32082;SDS011;18597;48.328;7.932;2023-06-22T02:16:23;22.33;;;14.80;;
32082;SDS011;18597;48.328;7.932;2023-06-22T02:18:49;20.47;;;13.33;;
32082;SDS011;18597;48.328;7.932;2023-06-22T02:21:17;27.67;;;13.50;;
32082;SDS011;18597;48.328;7.932;2023-06-22T02:23:43;25.47;;;14.97;;
32082;SDS011;18597;48.328;7.932;2023-06-22T02:26:09;21.93;;;13.30;;
32082;SDS011;18597;48.328;7.932;2023-06-22T02:28:35;23.80;;;15.83;;
32082;SDS011;18597;48.328;7.932;2023-06-22T02:31:01;27.03;;;15.63;;
32082;SDS011;18597;48.328;7.932;2023-06-22T02:33:27;15.53;;;13.93;;
32082;SDS011;18597;48.328;7.932;2023-06-22T02:35:53;27.87;;;15.40;;
32082;SDS011;18597;48.328;7.932;2023-06-22T02:38:19;31.47;;;14.90;;
32082;SDS011;18597;48.328;7.932;2023-06-22T02:40:45;19.90;;;13.47;;
32082;SDS011;18597;48.328;7.932;2023-06-22T02:43:12;18.73;;;14.43;;
32082;SDS011;18597;48.328;7.932;2023-06-22T02:45:38;21.13;;;13.30;;
32082;SDS011;18597;48.328;7.932;2023-06-22T02:48:04;14.67;;;13.17;;
32082;SDS011;18597;48.328;7.932;2023-06-22T02:50:30;22.17;;;13.37;;
32082;SDS011;18597;48.328;7.932;2023-06-22T02:52:56;26.00;;;15.90;;
32082;SDS011;18597;48.328;7.932;2023-06-22T02:55:23;23.10;;;15.00;;
32082;SDS011;18597;48.328;7.932;2023-06-22T02:57:49;20.33;;;14.00;;
32082;SDS011;18597;48.328;7.932;2023-06-22T03:00:17;18.40;;;13.50;;
32082;SDS011;18597;48.328;7.932;2023-06-22T03:02:45;23.73;;;14.43;;
32082;SDS011;18597;48.328;7.932;2023-06-22T03:05:13;20.33;;;14.33;;
32082;SDS011;18597;48.328;7.932;2023-06-22T03:07:43;18.87;;;13.33;;
32082;SDS011;18597;48.328;7.932;2023-06-22T03:10:10;27.07;;;13.47;;
32082;SDS011;18597;48.328;7.932;2023-06-22T03:12:37;24.50;;;18.37;;
32082;SDS011;18597;48.328;7.932;2023-06-22T03:15:05;21.10;;;14.70;;
32082;SDS011;18597;48.328;7.932;2023-06-22T03:17:34;18.33;;;14.17;;
32082;SDS011;18597;48.328;7.932;2023-06-22T03:20:01;15.50;;;13.13;;
32082;SDS011;18597;48.328;7.932;2023-06-22T03:22:34;21.87;;;14.03;;
32082;SDS011;18597;48.328;7.932;2023-06-22T03:25:01;20.97;;;12.90;;
32082;SDS011;18597;48.328;7.932;2023-06-22T03:27:27;17.07;;;13.37;;
32082;SDS011;18597;48.328;7.932;2023-06-22T03:29:53;24.53;;;13.80;;
32082;SDS011;18597;48.328;7.932;2023-06-22T03:32:18;28.97;;;14.00;;
32082;SDS011;18597;48.328;7.932;2023-06-22T03:34:45;29.40;;;14.20;;
32082;SDS011;18597;48.328;7.932;2023-06-22T03:37:12;22.50;;;15.83;;
32082;SDS011;18597;48.328;7.932;2023-06-22T03:39:40;17.40;;;14.70;;
32082;SDS011;18597;48.328;7.932;2023-06-22T03:42:07;22.03;;;15.77;;
32082;SDS011;18597;48.328;7.932;2023-06-22T03:44:33;19.07;;;13.60;;
32082;SDS011;18597;48.328;7.932;2023-06-22T03:47:02;21.40;;;13.60;;
32082;SDS011;18597;48.328;7.932;2023-06-22T03:49:29;20.93;;;15.00;;
32082;SDS011;18597;48.328;7.932;2023-06-22T03:51:55;18.73;;;14.77;;
32082;SDS011;18597;48.328;7.932;2023-06-22T03:54:21;25.93;;;14.67;;
32082;SDS011;18597;48.328;7.932;2023-06-22T03:56:46;22.40;;;13.90;;
32082;SDS011;18597;48.328;7.932;2023-06-22T03:59:12;18.47;;;13.30;;
32082;SDS011;18597;48.328;7.932;2023-06-22T04:01:38;19.53;;;12.87;;
32082;SDS011;18597;48.328;7.932;2023-06-22T04:04:04;13.23;;;11.90;;
32082;SDS011;18597;48.328;7.932;2023-06-22T04:06:30;21.20;;;12.93;;
32082;SDS011;18597;48.328;7.932;2023-06-22T04:08:56;22.00;;;13.10;;
32082;SDS011;18597;48.328;7.932;2023-06-22T04:11:22;28.03;;;14.07;;
32082;SDS011;18597;48.328;7.932;2023-06-22T04:13:48;23.03;;;13.03;;
32082;SDS011;18597;48.328;7.932;2023-06-22T04:16:14;29.00;;;13.20;;
32082;SDS011;18597;48.328;7.932;2023-06-22T04:18:39;15.90;;;11.70;;
32082;SDS011;18597;48.328;7.932;2023-06-22T04:21:06;26.87;;;12.43;;
32082;SDS011;18597;48.328;7.932;2023-06-22T04:23:32;17.23;;;12.07;;
32082;SDS011;18597;48.328;7.932;2023-06-22T04:25:58;20.03;;;13.63;;
32082;SDS011;18597;48.328;7.932;2023-06-22T04:28:24;12.57;;;11.00;;
32082;SDS011;18597;48.328;7.932;2023-06-22T04:30:50;11.60;;;10.40;;
32082;SDS011;18597;48.328;7.932;2023-06-22T04:33:16;13.20;;;11.90;;
32082;SDS011;18597;48.328;7.932;2023-06-22T04:35:44;15.67;;;11.63;;
32082;SDS011;18597;48.328;7.932;2023-06-22T04:38:11;13.90;;;11.00;;
32082;SDS011;18597;48.328;7.932;2023-06-22T04:40:39;13.23;;;11.20;;
32082;SDS011;18597;48.328;7.932;2023-06-22T04:43:05;14.43;;;11.70;;
32082;SDS011;18597;48.328;7.932;2023-06-22T04:45:32;14.83;;;12.47;;
32082;SDS011;18597;48.328;7.932;2023-06-22T04:47:58;15.63;;;10.50;;
32082;SDS011;18597;48.328;7.932;2023-06-22T04:50:24;10.00;;;8.90;;
32082;SDS011;18597;48.328;7.932;2023-06-22T04:52:50;23.07;;;11.43;;
32082;SDS011;18597;48.328;7.932;2023-06-22T04:55:16;13.40;;;9.17;;
32082;SDS011;18597;48.328;7.932;2023-06-22T04:57:45;11.87;;;9.67;;
32082;SDS011;18597;48.328;7.932;2023-06-22T05:00:15;13.60;;;9.00;;
32082;SDS011;18597;48.328;7.932;2023-06-22T05:02:44;14.03;;;9.00;;
32082;SDS011;18597;48.328;7.932;2023-06-22T05:05:12;13.70;;;8.93;;
32082;SDS011;18597;48.328;7.932;2023-06-22T05:07:41;9.10;;;8.20;;
32082;SDS011;18597;48.328;7.932;2023-06-22T05:10:10;10.20;;;8.77;;
32082;SDS011;18597;48.328;7.932;2023-06-22T05:12:37;15.87;;;7.63;;
32082;SDS011;18597;48.328;7.932;2023-06-22T05:15:05;11.27;;;8.10;;
32082;SDS011;18597;48.328;7.932;2023-06-22T05:17:33;12.20;;;8.00;;
32082;SDS011;18597;48.328;7.932;2023-06-22T05:20:00;13.10;;;6.80;;
32082;SDS011;18597;48.328;7.932;2023-06-22T05:22:27;8.03;;;6.37;;
32082;SDS011;18597;48.328;7.932;2023-06-22T05:24:52;9.93;;;8.67;;
32082;SDS011;18597;48.328;7.932;2023-06-22T05:27:18;6.53;;;6.13;;
32082;SDS011;18597;48.328;7.932;2023-06-22T05:29:44;9.07;;;7.00;;
32082;SDS011;18597;48.328;7.932;2023-06-22T05:32:10;7.80;;;7.10;;
32082;SDS011;18597;48.328;7.932;2023-06-22T05:34:36;12.40;;;7.77;;
32082;SDS011;18597;48.328;7.932;2023-06-22T05:37:04;18.50;;;7.60;;
32082;SDS011;18597;48.328;7.932;2023-06-22T05:39:31;9.43;;;7.70;;
32082;SDS011;18597;48.328;7.932;2023-06-22T05:41:57;8.27;;;7.13;;
32082;SDS011;18597;48.328;7.932;2023-06-22T05:44:23;7.50;;;6.43;;
32082;SDS011;18597;48.328;7.932;2023-06-22T05:46:48;12.90;;;7.53;;
32082;SDS011;18597;48.328;7.932;2023-06-22T05:49:15;9.40;;;7.23;;
32082;SDS011;18597;48.328;7.932;2023-06-22T05:51:41;7.37;;;6.27;;
32082;SDS011;18597;48.328;7.932;2023-06-22T05:54:07;7.60;;;6.90;;
32082;SDS011;18597;48.328;7.932;2023-06-22T05:56:33;7.77;;;7.07;;
32082;SDS011;18597;48.328;7.932;2023-06-22T05:58:59;19.73;;;6.97;;
32082;SDS011;18597;48.328;7.932;2023-06-22T06:01:25;7.23;;;6.13;;
32082;SDS011;18597;48.328;7.932;2023-06-22T06:03:51;10.70;;;6.73;;
32082;SDS011;18597;48.328;7.932;2023-06-22T06:06:18;7.30;;;6.60;;
32082;SDS011;18597;48.328;7.932;2023-06-22T06:08:53;6.33;;;5.73;;
32082;SDS011;18597;48.328;7.932;2023-06-22T06:11:20;6.57;;;5.97;;
32082;SDS011;18597;48.328;7.932;2023-06-22T06:13:46;15.20;;;6.10;;
32082;SDS011;18597;48.328;7.932;2023-06-22T06:16:12;6.20;;;5.60;;
32082;SDS011;18597;48.328;7.932;2023-06-22T06:18:38;8.17;;;5.70;;
32082;SDS011;18597;48.328;7.932;2023-06-22T06:21:04;6.10;;;5.60;;
32082;SDS011;18597;48.328;7.932;2023-06-22T06:23:30;5.63;;;5.23;;
32082;SDS011;18597;48.328;7.932;2023-06-22T06:25:55;8.40;;;6.50;;
32082;SDS011;18597;48.328;7.932;2023-06-22T06:28:21;5.70;;;5.10;;
32082;SDS011;18597;48.328;7.932;2023-06-22T06:30:47;6.60;;;5.90;;
32082;SDS011;18597;48.328;7.932;2023-06-22T06:33:13;6.57;;;5.80;;
32082;SDS011;18597;48.328;7.932;2023-06-22T06:35:39;5.85;;;5.45;;
32082;SDS011;18597;48.328;7.932;2023-06-22T06:38:04;6.95;;;5.30;;
32082;SDS011;18597;48.328;7.932;2023-06-22T06:40:30;8.05;;;4.50;;
32082;SDS011;18597;48.328;7.932;2023-06-22T06:42:56;4.90;;;4.55;;
32082;SDS011;18597;48.328;7.932;2023-06-22T06:45:22;7.80;;;4.32;;
32082;SDS011;18597;48.328;7.932;2023-06-22T06:47:50;4.95;;;4.72;;
32082;SDS011;18597;48.328;7.932;2023-06-22T06:50:17;4.82;;;4.53;;
32082;SDS011;18597;48.328;7.932;2023-06-22T06:52:43;5.75;;;5.38;;
32082;SDS011;18597;48.328;7.932;2023-06-22T06:55:09;5.88;;;5.38;;
32082;SDS011;18597;48.328;7.932;2023-06-22T06:57:38;5.30;;;4.75;;
32082;SDS011;18597;48.328;7.932;2023-06-22T07:00:05;4.97;;;4.68;;
32082;SDS011;18597;48.328;7.932;2023-06-22T07:02:37;5.63;;;4.88;;
32082;SDS011;18597;48.328;7.932;2023-06-22T07:05:05;4.70;;;3.97;;
32082;SDS011;18597;48.328;7.932;2023-06-22T07:07:31;5.45;;;5.05;;
32082;SDS011;18597;48.328;7.932;2023-06-22T07:09:57;6.68;;;5.97;;
32082;SDS011;18597;48.328;7.932;2023-06-22T07:12:23;5.25;;;4.93;;
32082;SDS011;18597;48.328;7.932;2023-06-22T07:14:49;4.82;;;4.53;;
32082;SDS011;18597;48.328;7.932;2023-06-22T07:17:16;7.15;;;4.85;;
32082;SDS011;18597;48.328;7.932;2023-06-22T07:19:42;9.55;;;5.35;;
32082;SDS011;18597;48.328;7.932;2023-06-22T07:22:08;7.05;;;5.57;;
32082;SDS011;18597;48.328;7.932;2023-06-22T07:24:34;9.63;;;5.73;;
32082;SDS011;18597;48.328;7.932;2023-06-22T07:26:59;5.57;;;5.07;;
32082;SDS011;18597;48.328;7.932;2023-06-22T07:29:27;6.23;;;5.57;;
32082;SDS011;18597;48.328;7.932;2023-06-22T07:31:53;7.10;;;6.07;;
32082;SDS011;18597;48.328;7.932;2023-06-22T07:34:21;16.10;;;6.47;;
32082;SDS011;18597;48.328;7.932;2023-06-22T07:36:47;8.70;;;6.27;;
32082;SDS011;18597;48.328;7.932;2023-06-22T07:39:13;13.17;;;7.43;;
32082;SDS011;18597;48.328;7.932;2023-06-22T07:41:40;19.10;;;7.00;;
32082;SDS011;18597;48.328;7.932;2023-06-22T07:44:06;14.43;;;7.20;;
32082;SDS011;18597;48.328;7.932;2023-06-22T07:46:32;10.20;;;7.03;;
32082;SDS011;18597;48.328;7.932;2023-06-22T07:48:58;6.70;;;6.20;;
32082;SDS011;18597;48.328;7.932;2023-06-22T07:51:26;10.47;;;6.83;;
32082;SDS011;18597;48.328;7.932;2023-06-22T07:53:52;7.37;;;6.73;;
32082;SDS011;18597;48.328;7.932;2023-06-22T07:56:18;7.50;;;6.80;;
32082;SDS011;18597;48.328;7.932;2023-06-22T07:58:45;11.30;;;6.80;;
32082;SDS011;18597;48.328;7.932;2023-06-22T08:01:13;13.73;;;7.30;;
32082;SDS011;18597;48.328;7.932;2023-06-22T08:03:40;7.03;;;6.33;;
32082;SDS011;18597;48.328;7.932;2023-06-22T08:06:07;8.63;;;7.57;;
32082;SDS011;18597;48.328;7.932;2023-06-22T08:08:34;8.00;;;7.30;;
32082;SDS011;18597;48.328;7.932;2023-06-22T08:11:01;8.00;;;7.20;;
32082;SDS011;18597;48.328;7.932;2023-06-22T08:13:27;8.37;;;7.67;;
32082;SDS011;18597;48.328;7.932;2023-06-22T08:15:53;11.07;;;8.20;;
32082;SDS011;18597;48.328;7.932;2023-06-22T08:18:19;9.60;;;8.00;;
32082;SDS011;18597;48.328;7.932;2023-06-22T08:20:45;8.00;;;7.20;;
32082;SDS011;18597;48.328;7.932;2023-06-22T08:23:11;7.57;;;6.93;;
32082;SDS011;18597;48.328;7.932;2023-06-22T08:25:37;8.13;;;7.32;;
32082;SDS011;18597;48.328;7.932;2023-06-22T08:28:03;12.93;;;7.20;;
32082;SDS011;18597;48.328;7.932;2023-06-22T08:30:29;7.60;;;6.60;;
32082;SDS011;18597;48.328;7.932;2023-06-22T08:32:55;9.48;;;6.72;;
32082;SDS011;18597;48.328;7.932;2023-06-22T08:35:22;9.07;;;6.57;;
32082;SDS011;18597;48.328;7.932;2023-06-22T08:37:48;5.93;;;5.32;;
32082;SDS011;18597;48.328;7.932;2023-06-22T08:40:18;7.68;;;6.82;;
32082;SDS011;18597;48.328;7.932;2023-06-22T08:42:45;6.13;;;5.68;;
32082;SDS011;18597;48.328;7.932;2023-06-22T08:45:12;6.55;;;6.00;;
32082;SDS011;18597;48.328;7.932;2023-06-22T08:47:40;7.05;;;5.80;;
32082;SDS011;18597;48.328;7.932;2023-06-22T08:50:07;7.50;;;6.95;;
32082;SDS011;18597;48.328;7.932;2023-06-22T08:52:35;6.68;;;6.22;;
32082;SDS011;18597;48.328;7.932;2023-06-22T08:55:02;8.38;;;7.10;;
32082;SDS011;18597;48.328;7.932;2023-06-22T08:57:29;7.57;;;6.60;;
32082;SDS011;18597;48.328;7.932;2023-06-22T08:59:55;7.67;;;6.90;;
32082;SDS011;18597;48.328;7.932;2023-06-22T09:02:25;9.03;;;7.70;;
32082;SDS011;18597;48.328;7.932;2023-06-22T09:04:55;7.67;;;6.83;;
32082;SDS011;18597;48.328;7.932;2023-06-22T09:07:22;11.20;;;7.43;;
32082;SDS011;18597;48.328;7.932;2023-06-22T09:09:50;11.57;;;7.03;;
32082;SDS011;18597;48.328;7.932;2023-06-22T09:12:16;12.27;;;7.20;;
32082;SDS011;18597;48.328;7.932;2023-06-22T09:14:45;10.50;;;6.30;;
32082;SDS011;18597;48.328;7.932;2023-06-22T09:17:12;9.50;;;6.97;;
32082;SDS011;18597;48.328;7.932;2023-06-22T09:19:38;10.23;;;8.60;;
32082;SDS011;18597;48.328;7.932;2023-06-22T09:22:04;10.00;;;7.40;;
32082;SDS011;18597;48.328;7.932;2023-06-22T09:24:31;8.03;;;7.00;;
32082;SDS011;18597;48.328;7.932;2023-06-22T09:26:58;14.70;;;7.57;;
32082;SDS011;18597;48.328;7.932;2023-06-22T09:29:24;7.13;;;6.53;;
32082;SDS011;18597;48.328;7.932;2023-06-22T09:31:50;10.60;;;7.03;;
32082;SDS011;18597;48.328;7.932;2023-06-22T09:34:18;6.97;;;6.43;;
32082;SDS011;18597;48.328;7.932;2023-06-22T09:36:45;13.80;;;7.10;;
32082;SDS011;18597;48.328;7.932;2023-06-22T09:39:11;7.57;;;6.87;;
32082;SDS011;18597;48.328;7.932;2023-06-22T09:41:37;18.00;;;8.40;;
32082;SDS011;18597;48.328;7.932;2023-06-22T09:44:03;8.77;;;6.87;;
32082;SDS011;18597;48.328;7.932;2023-06-22T09:46:29;27.27;;;8.53;;
32082;SDS011;18597;48.328;7.932;2023-06-22T09:48:55;10.17;;;8.17;;
32082;SDS011;18597;48.328;7.932;2023-06-22T09:51:21;15.10;;;8.03;;
32082;SDS011;18597;48.328;7.932;2023-06-22T09:53:48;6.50;;;5.90;;
32082;SDS011;18597;48.328;7.932;2023-06-22T09:56:15;16.00;;;6.63;;
32082;SDS011;18597;48.328;7.932;2023-06-22T09:58:42;7.17;;;6.30;;
32082;SDS011;18597;48.328;7.932;2023-06-22T10:01:10;11.60;;;6.40;;
32082;SDS011;18597;48.328;7.932;2023-06-22T10:03:36;9.30;;;7.20;;
32082;SDS011;18597;48.328;7.932;2023-06-22T10:06:02;9.03;;;6.70;;
32082;SDS011;18597;48.328;7.932;2023-06-22T10:08:28;10.27;;;7.07;;
32082;SDS011;18597;48.328;7.932;2023-06-22T10:10:54;10.57;;;6.80;;
32082;SDS011;18597;48.328;7.932;2023-06-22T10:13:20;11.90;;;6.23;;
32082;SDS011;18597;48.328;7.932;2023-06-22T10:15:46;13.67;;;7.47;;
32082;SDS011;18597;48.328;7.932;2023-06-22T10:18:16;7.70;;;6.90;;
32082;SDS011;18597;48.328;7.932;2023-06-22T10:20:42;15.10;;;5.90;;
32082;SDS011;18597;48.328;7.932;2023-06-22T10:23:09;9.43;;;7.00;;
32082;SDS011;18597;48.328;7.932;2023-06-22T10:25:35;12.90;;;6.70;;
32082;SDS011;18597;48.328;7.932;2023-06-22T10:28:00;7.75;;;6.75;;
32082;SDS011;18597;48.328;7.932;2023-06-22T10:30:26;8.60;;;6.80;;
32082;SDS011;18597;48.328;7.932;2023-06-22T10:32:53;10.95;;;6.95;;
32082;SDS011;18597;48.328;7.932;2023-06-22T10:35:19;7.70;;;6.47;;
32082;SDS011;18597;48.328;7.932;2023-06-22T10:37:45;11.23;;;7.15;;
32082;SDS011;18597;48.328;7.932;2023-06-22T10:40:13;10.75;;;6.03;;
32082;SDS011;18597;48.328;7.932;2023-06-22T10:42:40;16.50;;;7.07;;
32082;SDS011;18597;48.328;7.932;2023-06-22T10:45:07;11.43;;;7.15;;
32082;SDS011;18597;48.328;7.932;2023-06-22T10:47:34;8.95;;;5.65;;
32082;SDS011;18597;48.328;7.932;2023-06-22T10:50:00;9.55;;;6.18;;
32082;SDS011;18597;48.328;7.932;2023-06-22T10:52:27;8.13;;;6.82;;
32082;SDS011;18597;48.328;7.932;2023-06-22T10:54:52;8.80;;;6.45;;
32082;SDS011;18597;48.328;7.932;2023-06-22T10:57:18;11.95;;;5.75;;
32082;SDS011;18597;48.328;7.932;2023-06-22T10:59:44;7.25;;;6.57;;
32082;SDS011;18597;48.328;7.932;2023-06-22T11:02:10;18.20;;;7.05;;
32082;SDS011;18597;48.328;7.932;2023-06-22T11:04:36;8.30;;;6.75;;
32082;SDS011;18597;48.328;7.932;2023-06-22T11:07:01;6.85;;;6.20;;
32082;SDS011;18597;48.328;7.932;2023-06-22T11:09:27;8.48;;;6.05;;
32082;SDS011;18597;48.328;7.932;2023-06-22T11:11:53;6.68;;;6.05;;
32082;SDS011;18597;48.328;7.932;2023-06-22T11:14:21;10.70;;;6.72;;
32082;SDS011;18597;48.328;7.932;2023-06-22T11:16:47;8.70;;;6.50;;
32082;SDS011;18597;48.328;7.932;2023-06-22T11:19:13;9.20;;;5.97;;
32082;SDS011;18597;48.328;7.932;2023-06-22T11:21:39;13.63;;;6.40;;
32082;SDS011;18597;48.328;7.932;2023-06-22T11:24:05;9.52;;;6.57;;
32082;SDS011;18597;48.328;7.932;2023-06-22T11:26:31;6.78;;;5.78;;
32082;SDS011;18597;48.328;7.932;2023-06-22T11:28:57;6.50;;;5.90;;
32082;SDS011;18597;48.328;7.932;2023-06-22T11:31:23;6.65;;;5.80;;
32082;SDS011;18597;48.328;7.932;2023-06-22T11:33:49;8.43;;;5.90;;
32082;SDS011;18597;48.328;7.932;2023-06-22T11:36:15;7.22;;;6.10;;
32082;SDS011;18597;48.328;7.932;2023-06-22T11:38:41;9.57;;;6.20;;
32082;SDS011;18597;48.328;7.932;2023-06-22T11:41:08;9.73;;;6.78;;
32082;SDS011;18597;48.328;7.932;2023-06-22T11:43:35;8.32;;;6.15;;
32082;SDS011;18597;48.328;7.932;2023-06-22T11:46:03;9.20;;;6.05;;
32082;SDS011;18597;48.328;7.932;2023-06-22T11:48:29;9.07;;;7.10;;
32082;SDS011;18597;48.328;7.932;2023-06-22T11:50:55;12.13;;;7.47;;
32082;SDS011;18597;48.328;7.932;2023-06-22T11:53:23;9.93;;;5.70;;
32082;SDS011;18597;48.328;7.932;2023-06-22T11:55:51;10.77;;;6.18;;
32082;SDS011;18597;48.328;7.932;2023-06-22T11:58:18;10.57;;;6.85;;
32082;SDS011;18597;48.328;7.932;2023-06-22T12:00:44;15.82;;;6.32;;
32082;SDS011;18597;48.328;7.932;2023-06-22T12:03:10;14.15;;;6.78;;
32082;SDS011;18597;48.328;7.932;2023-06-22T12:05:37;8.55;;;6.03;;
32082;SDS011;18597;48.328;7.932;2023-06-22T12:08:03;14.20;;;6.85;;
32082;SDS011;18597;48.328;7.932;2023-06-22T12:10:29;9.63;;;7.32;;
32082;SDS011;18597;48.328;7.932;2023-06-22T12:12:56;8.38;;;6.32;;
32082;SDS011;18597;48.328;7.932;2023-06-22T12:15:24;8.32;;;5.13;;
32082;SDS011;18597;48.328;7.932;2023-06-22T12:17:51;11.90;;;6.57;;
32082;SDS011;18597;48.328;7.932;2023-06-22T12:20:18;9.93;;;5.85;;
32082;SDS011;18597;48.328;7.932;2023-06-22T12:22:43;10.68;;;6.35;;
32082;SDS011;18597;48.328;7.932;2023-06-22T12:25:10;7.80;;;6.70;;
32082;SDS011;18597;48.328;7.932;2023-06-22T12:27:36;7.25;;;5.30;;
32082;SDS011;18597;48.328;7.932;2023-06-22T12:30:03;7.18;;;5.75;;
32082;SDS011;18597;48.328;7.932;2023-06-22T12:32:30;10.93;;;6.28;;
32082;SDS011;18597;48.328;7.932;2023-06-22T12:34:56;9.13;;;6.75;;
32082;SDS011;18597;48.328;7.932;2023-06-22T12:37:22;6.40;;;5.82;;
32082;SDS011;18597;48.328;7.932;2023-06-22T12:39:49;11.55;;;7.07;;
32082;SDS011;18597;48.328;7.932;2023-06-22T12:42:15;8.68;;;6.75;;
32082;SDS011;18597;48.328;7.932;2023-06-22T12:44:41;9.52;;;6.55;;
32082;SDS011;18597;48.328;7.932;2023-06-22T12:47:08;9.32;;;6.55;;
32082;SDS011;18597;48.328;7.932;2023-06-22T12:49:34;11.48;;;6.90;;
32082;SDS011;18597;48.328;7.932;2023-06-22T12:52:01;10.93;;;6.03;;
32082;SDS011;18597;48.328;7.932;2023-06-22T12:54:28;7.90;;;6.22;;
32082;SDS011;18597;48.328;7.932;2023-06-22T12:56:54;9.60;;;6.25;;
32082;SDS011;18597;48.328;7.932;2023-06-22T12:59:21;9.93;;;6.35;;
32082;SDS011;18597;48.328;7.932;2023-06-22T13:01:47;7.72;;;5.60;;
32082;SDS011;18597;48.328;7.932;2023-06-22T13:04:12;8.13;;;6.43;;
32082;SDS011;18597;48.328;7.932;2023-06-22T13:06:41;18.15;;;7.47;;
32082;SDS011;18597;48.328;7.932;2023-06-22T13:09:07;11.77;;;6.43;;
32082;SDS011;18597;48.328;7.932;2023-06-22T13:11:34;12.77;;;6.90;;
32082;SDS011;18597;48.328;7.932;2023-06-22T13:14:00;11.65;;;6.65;;
32082;SDS011;18597;48.328;7.932;2023-06-22T13:16:26;12.90;;;7.25;;
32082;SDS011;18597;48.328;7.932;2023-06-22T13:18:52;7.70;;;5.93;;
32082;SDS011;18597;48.328;7.932;2023-06-22T13:21:18;11.13;;;6.57;;
32082;SDS011;18597;48.328;7.932;2023-06-22T13:23:43;6.22;;;5.63;;
32082;SDS011;18597;48.328;7.932;2023-06-22T13:26:09;10.48;;;7.10;;
32082;SDS011;18597;48.328;7.932;2023-06-22T13:28:35;19.60;;;5.68;;
32082;SDS011;18597;48.328;7.932;2023-06-22T13:31:01;12.77;;;6.25;;
32082;SDS011;18597;48.328;7.932;2023-06-22T13:33:27;9.50;;;5.43;;
32082;SDS011;18597;48.328;7.932;2023-06-22T13:35:53;7.97;;;6.15;;
32082;SDS011;18597;48.328;7.932;2023-06-22T13:38:18;8.80;;;6.40;;
32082;SDS011;18597;48.328;7.932;2023-06-22T13:40:44;14.48;;;6.03;;
32082;SDS011;18597;48.328;7.932;2023-06-22T13:43:10;11.52;;;6.18;;
32082;SDS011;18597;48.328;7.932;2023-06-22T13:45:36;8.13;;;6.00;;
32082;SDS011;18597;48.328;7.932;2023-06-22T13:48:02;14.65;;;5.40;;
32082;SDS011;18597;48.328;7.932;2023-06-22T13:50:28;12.15;;;6.30;;
32082;SDS011;18597;48.328;7.932;2023-06-22T13:52:54;9.02;;;6.55;;
32082;SDS011;18597;48.328;7.932;2023-06-22T13:55:21;15.10;;;6.40;;
32082;SDS011;18597;48.328;7.932;2023-06-22T13:57:48;15.13;;;5.78;;
32082;SDS011;18597;48.328;7.932;2023-06-22T14:00:14;15.98;;;7.05;;
32082;SDS011;18597;48.328;7.932;2023-06-22T14:02:40;12.55;;;6.10;;
32082;SDS011;18597;48.328;7.932;2023-06-22T14:05:06;9.80;;;5.10;;
32082;SDS011;18597;48.328;7.932;2023-06-22T14:07:33;7.47;;;4.82;;
32082;SDS011;18597;48.328;7.932;2023-06-22T14:09:59;8.35;;;5.43;;
32082;SDS011;18597;48.328;7.932;2023-06-22T14:12:25;7.25;;;5.32;;
32082;SDS011;18597;48.328;7.932;2023-06-22T14:14:51;6.57;;;5.13;;
32082;SDS011;18597;48.328;7.932;2023-06-22T14:17:17;10.50;;;5.13;;
32082;SDS011;18597;48.328;7.932;2023-06-22T14:19:48;6.38;;;5.78;;
32082;SDS011;18597;48.328;7.932;2023-06-22T14:22:17;8.52;;;5.60;;
32082;SDS011;18597;48.328;7.932;2023-06-22T14:24:43;11.75;;;5.47;;
32082;SDS011;18597;48.328;7.932;2023-06-22T14:27:09;7.50;;;5.70;;
32082;SDS011;18597;48.328;7.932;2023-06-22T14:29:35;11.48;;;5.65;;
32082;SDS011;18597;48.328;7.932;2023-06-22T14:32:01;8.63;;;5.50;;
32082;SDS011;18597;48.328;7.932;2023-06-22T14:34:27;14.27;;;6.10;;